Time;durP1;ratioP1;P1;durP2;ratioP2;P2;SDS_P1;SDS_P2;PMS_P1;PMS_P2;Temp;Humidity;BMP_temperature;BMP_pressure;BME280_temperature;BME280_humidity;BME280_pressure;Samples;Min_cycle;Max_cycle;Signal;HPM_P1;HPM_P2
2022/09/22 00:01:04;;;;;;;5.57;1.40;;;;;;;;;;4775165;30;20111;-69
2022/09/22 00:03:31;;;;;;;5.68;1.73;;;;;;;;;;4775276;30;20060;-69
2022/09/22 00:05:59;;;;;;;3.85;1.23;;;;;;;;;;4774802;30;20083;-69
2022/09/22 00:11:34;;;;;;;2.63;1.48;;;;;;;;;;4774420;30;20038;-69
2022/09/22 00:14:01;;;;;;;3.92;1.30;;;;;;;;;;4775244;30;20086;-69
2022/09/22 00:16:32;;;;;;;2.58;1.13;;;;;;;;;;4774617;30;20138;-69
2022/09/22 00:18:58;;;;;;;6.05;1.40;;;;;;;;;;4774736;30;20048;-69
2022/09/22 00:21:26;;;;;;;3.88;1.30;;;;;;;;;;4775012;30;20078;-69
2022/09/22 00:23:53;;;;;;;2.80;1.30;;;;;;;;;;4774605;30;20052;-69
2022/09/22 00:26:20;;;;;;;3.53;1.60;;;;;;;;;;4788392;30;20048;-69
2022/09/22 00:28:48;;;;;;;2.03;1.15;;;;;;;;;;4774627;30;20067;-69
2022/09/22 00:31:16;;;;;;;1.88;1.30;;;;;;;;;;4774362;30;20066;-69
2022/09/22 00:33:42;;;;;;;2.08;1.30;;;;;;;;;;4774541;30;20039;-69
2022/09/22 00:36:08;;;;;;;3.72;1.25;;;;;;;;;;4774861;30;20506;-69
2022/09/22 00:38:36;;;;;;;4.25;1.50;;;;;;;;;;4774090;30;20488;-69
2022/09/22 00:41:03;;;;;;;3.35;1.20;;;;;;;;;;4774229;30;20074;-69
2022/09/22 00:43:33;;;;;;;3.88;1.25;;;;;;;;;;4774111;30;20131;-69
2022/09/22 00:46:19;;;;;;;6.13;1.40;;;;;;;;;;4774413;30;20496;-69
2022/09/22 00:48:48;;;;;;;5.18;1.30;;;;;;;;;;4773641;30;20058;-69
2022/09/22 00:51:16;;;;;;;4.03;1.48;;;;;;;;;;4774050;30;20397;-69
2022/09/22 00:53:42;;;;;;;2.40;1.45;;;;;;;;;;4774116;30;20052;-69
2022/09/22 00:56:17;;;;;;;1.83;1.10;;;;;;;;;;4774524;30;20070;-69
2022/09/22 00:58:46;;;;;;;3.22;1.75;;;;;;;;;;4774743;30;20050;-69
2022/09/22 01:01:13;;;;;;;5.75;1.65;;;;;;;;;;4773909;30;20047;-69
2022/09/22 01:03:41;;;;;;;2.45;1.20;;;;;;;;;;4773091;30;20062;-69
2022/09/22 01:06:09;;;;;;;4.05;1.50;;;;;;;;;;4774809;30;20186;-69
2022/09/22 01:08:36;;;;;;;1.55;1.05;;;;;;;;;;4774094;30;20036;-70
2022/09/22 01:11:03;;;;;;;2.05;1.23;;;;;;;;;;4773884;30;20044;-69
2022/09/22 01:13:35;;;;;;;4.30;1.55;;;;;;;;;;4774034;30;20055;-69
2022/09/22 01:16:25;;;;;;;2.95;1.23;;;;;;;;;;4774010;30;20508;-69
2022/09/22 01:18:57;;;;;;;1.42;1.20;;;;;;;;;;4774053;30;20121;-69
2022/09/22 01:21:32;;;;;;;4.90;1.52;;;;;;;;;;4773853;30;20105;-69
2022/09/22 01:24:01;;;;;;;3.58;1.40;;;;;;;;;;4773735;30;20484;-69
2022/09/22 01:26:30;;;;;;;5.22;1.27;;;;;;;;;;4773427;30;20531;-69
2022/09/22 01:29:04;;;;;;;2.35;1.25;;;;;;;;;;4774132;30;20071;-69
2022/09/22 01:31:33;;;;;;;2.88;1.23;;;;;;;;;;4773502;30;20056;-69
2022/09/22 01:34:05;;;;;;;3.22;1.42;;;;;;;;;;4773908;30;20039;-69
2022/09/22 01:36:42;;;;;;;2.95;1.52;;;;;;;;;;4773442;30;20040;-69
2022/09/22 01:39:14;;;;;;;2.03;1.25;;;;;;;;;;4773287;30;20050;-69
2022/09/22 01:41:50;;;;;;;3.05;1.40;;;;;;;;;;4773122;30;20500;-69
2022/09/22 01:44:24;;;;;;;2.85;1.60;;;;;;;;;;4773456;30;20044;-69
2022/09/22 01:46:55;;;;;;;1.60;1.40;;;;;;;;;;4773472;30;20063;-69
2022/09/22 01:49:22;;;;;;;3.78;1.50;;;;;;;;;;4773401;30;20040;-69
2022/09/22 01:51:53;;;;;;;2.97;1.48;;;;;;;;;;4773342;30;20656;-69
2022/09/22 01:54:27;;;;;;;3.80;1.10;;;;;;;;;;4773246;30;20079;-69
2022/09/22 01:56:58;;;;;;;3.22;1.25;;;;;;;;;;4773538;30;20531;-69
2022/09/22 01:59:26;;;;;;;3.03;1.45;;;;;;;;;;4773510;30;20048;-69
2022/09/22 02:01:56;;;;;;;3.67;1.35;;;;;;;;;;4772809;30;20056;-69
2022/09/22 02:04:29;;;;;;;4.32;1.65;;;;;;;;;;4772785;30;20503;-69
2022/09/22 02:07:09;;;;;;;4.13;1.35;;;;;;;;;;4772673;30;20497;-69
2022/09/22 02:09:38;;;;;;;3.45;1.52;;;;;;;;;;4773175;30;20054;-69
2022/09/22 02:12:04;;;;;;;2.30;1.02;;;;;;;;;;4773545;30;20082;-69
2022/09/22 02:14:31;;;;;;;1.92;1.40;;;;;;;;;;4772579;30;20036;-69
2022/09/22 02:16:58;;;;;;;2.30;1.63;;;;;;;;;;4772146;30;20047;-69
2022/09/22 02:19:28;;;;;;;3.33;1.30;;;;;;;;;;4772500;30;20418;-69
2022/09/22 02:21:54;;;;;;;2.30;1.40;;;;;;;;;;4773113;30;20052;-69
2022/09/22 02:24:26;;;;;;;2.85;1.30;;;;;;;;;;4772981;30;20446;-69
2022/09/22 02:26:53;;;;;;;3.47;1.40;;;;;;;;;;4772448;30;20044;-69
2022/09/22 02:29:19;;;;;;;4.10;1.60;;;;;;;;;;4773198;30;20120;-69
2022/09/22 02:31:45;;;;;;;1.42;1.17;;;;;;;;;;4772860;30;20079;-69
2022/09/22 02:34:12;;;;;;;3.35;1.30;;;;;;;;;;4773046;30;20087;-69
2022/09/22 02:36:42;;;;;;;2.95;1.52;;;;;;;;;;4772638;30;20043;-69
2022/09/22 02:39:11;;;;;;;2.35;1.50;;;;;;;;;;4772517;30;20074;-69
2022/09/22 02:41:48;;;;;;;3.15;1.20;;;;;;;;;;4772422;30;20051;-69
2022/09/22 02:44:32;;;;;;;2.50;1.20;;;;;;;;;;4772743;30;20055;-69
2022/09/22 02:47:05;;;;;;;3.20;1.40;;;;;;;;;;4772463;30;20060;-69
2022/09/22 02:49:32;;;;;;;2.33;1.48;;;;;;;;;;4772633;30;20048;-69
2022/09/22 02:51:58;;;;;;;3.25;1.30;;;;;;;;;;4771172;30;20054;-69
2022/09/22 02:54:24;;;;;;;4.13;1.85;;;;;;;;;;4773004;30;20089;-69
2022/09/22 02:56:50;;;;;;;4.10;1.98;;;;;;;;;;4772251;30;20156;-69
2022/09/22 02:59:17;;;;;;;5.30;1.60;;;;;;;;;;4772414;30;20106;-69
2022/09/22 03:01:43;;;;;;;3.30;1.58;;;;;;;;;;4772135;30;20134;-69
2022/09/22 03:04:09;;;;;;;3.20;1.27;;;;;;;;;;4772370;30;20127;-69
2022/09/22 03:06:37;;;;;;;3.20;1.75;;;;;;;;;;4772453;30;20468;-69
2022/09/22 03:09:03;;;;;;;4.50;1.67;;;;;;;;;;4772015;30;20077;-69
2022/09/22 03:11:29;;;;;;;2.40;1.25;;;;;;;;;;4771824;30;20063;-69
2022/09/22 03:13:55;;;;;;;3.28;1.42;;;;;;;;;;4772022;30;20058;-69
2022/09/22 03:16:21;;;;;;;4.50;1.80;;;;;;;;;;4771914;30;20126;-69
2022/09/22 03:18:47;;;;;;;4.05;1.65;;;;;;;;;;4771707;30;20047;-69
2022/09/22 03:21:14;;;;;;;4.28;1.40;;;;;;;;;;4771906;30;20052;-69
2022/09/22 03:23:40;;;;;;;3.38;1.38;;;;;;;;;;4772133;30;20079;-69
2022/09/22 03:26:06;;;;;;;2.97;1.70;;;;;;;;;;4771737;30;20543;-69
2022/09/22 03:28:32;;;;;;;2.88;1.52;;;;;;;;;;4771199;30;20078;-69
2022/09/22 03:30:58;;;;;;;7.05;1.40;;;;;;;;;;4771347;30;20569;-69
2022/09/22 03:33:24;;;;;;;4.70;1.70;;;;;;;;;;4771277;30;20078;-69
2022/09/22 03:35:50;;;;;;;5.28;1.50;;;;;;;;;;4771605;30;20040;-69
2022/09/22 03:38:16;;;;;;;3.60;1.50;;;;;;;;;;4771041;30;20047;-69
2022/09/22 03:40:49;;;;;;;3.03;1.60;;;;;;;;;;4771457;30;20074;-69
2022/09/22 03:43:16;;;;;;;2.92;1.60;;;;;;;;;;4771086;30;20555;-69
2022/09/22 03:45:42;;;;;;;2.83;1.58;;;;;;;;;;4771108;30;20581;-69
2022/09/22 03:48:08;;;;;;;4.32;1.75;;;;;;;;;;4771329;30;20036;-69
2022/09/22 03:50:34;;;;;;;3.67;1.58;;;;;;;;;;4771096;30;20071;-69
2022/09/22 03:53:00;;;;;;;4.72;1.90;;;;;;;;;;4771348;30;20535;-69
2022/09/22 03:55:27;;;;;;;2.53;1.50;;;;;;;;;;4771330;30;20059;-69
2022/09/22 03:57:53;;;;;;;3.80;1.70;;;;;;;;;;4771336;30;20123;-69
2022/09/22 04:00:19;;;;;;;5.90;1.88;;;;;;;;;;4771182;30;20193;-69
2022/09/22 04:02:45;;;;;;;3.40;1.70;;;;;;;;;;4770356;30;20059;-69
2022/09/22 04:05:11;;;;;;;4.53;1.65;;;;;;;;;;4771560;30;20071;-69
2022/09/22 04:07:38;;;;;;;2.40;1.20;;;;;;;;;;4771033;30;20047;-69
2022/09/22 04:10:04;;;;;;;4.88;1.70;;;;;;;;;;4771565;30;20048;-69
2022/09/22 04:12:30;;;;;;;4.75;1.50;;;;;;;;;;4771499;30;20055;-69
2022/09/22 04:14:57;;;;;;;2.72;1.60;;;;;;;;;;4770903;30;20047;-69
2022/09/22 04:17:23;;;;;;;4.05;1.70;;;;;;;;;;4771412;30;20572;-69
2022/09/22 04:19:49;;;;;;;4.30;1.73;;;;;;;;;;4771076;30;20132;-69
2022/09/22 04:22:15;;;;;;;2.38;1.23;;;;;;;;;;4771138;30;20060;-70
2022/09/22 04:24:41;;;;;;;3.40;1.40;;;;;;;;;;4770767;30;20495;-70
2022/09/22 04:27:08;;;;;;;7.15;1.70;;;;;;;;;;4771028;30;20047;-69
2022/09/22 04:29:34;;;;;;;3.50;1.60;;;;;;;;;;4770969;30;20139;-69
2022/09/22 04:32:01;;;;;;;4.57;2.08;;;;;;;;;;4771066;30;20059;-69
2022/09/22 04:34:27;;;;;;;2.95;1.40;;;;;;;;;;4771489;30;20051;-69
2022/09/22 04:36:53;;;;;;;2.38;1.30;;;;;;;;;;4770560;30;20054;-70
2022/09/22 04:39:19;;;;;;;4.32;1.65;;;;;;;;;;4771530;30;20047;-69
2022/09/22 04:41:45;;;;;;;2.45;1.58;;;;;;;;;;4772511;30;20082;-70
2022/09/22 04:44:11;;;;;;;3.55;1.58;;;;;;;;;;4773027;30;20524;-70
2022/09/22 04:46:37;;;;;;;5.25;1.67;;;;;;;;;;4774278;30;20066;-69
2022/09/22 04:49:04;;;;;;;4.40;1.40;;;;;;;;;;4773764;30;20043;-70
2022/09/22 04:51:30;;;;;;;4.32;1.90;;;;;;;;;;4774105;30;20121;-70
2022/09/22 04:53:56;;;;;;;4.90;1.70;;;;;;;;;;4773945;30;20040;-70
2022/09/22 04:56:22;;;;;;;3.35;1.58;;;;;;;;;;4774264;30;20043;-70
2022/09/22 04:58:48;;;;;;;4.88;1.67;;;;;;;;;;4774191;30;20127;-69
2022/09/22 05:01:14;;;;;;;3.78;1.60;;;;;;;;;;4772817;30;20433;-70
2022/09/22 05:03:40;;;;;;;6.72;1.75;;;;;;;;;;4773966;30;20109;-70
2022/09/22 05:06:06;;;;;;;4.35;1.80;;;;;;;;;;4773769;30;20508;-70
2022/09/22 05:08:33;;;;;;;5.00;1.60;;;;;;;;;;4773265;30;20073;-70
2022/09/22 05:10:59;;;;;;;3.80;1.90;;;;;;;;;;4772206;30;20101;-70
2022/09/22 05:13:25;;;;;;;2.67;1.50;;;;;;;;;;4772838;30;20126;-70
2022/09/22 05:15:52;;;;;;;2.53;1.60;;;;;;;;;;4772134;30;20397;-70
2022/09/22 05:18:18;;;;;;;2.75;1.40;;;;;;;;;;4773554;30;20051;-70
2022/09/22 05:20:44;;;;;;;3.20;1.40;;;;;;;;;;4772882;30;20067;-70
2022/09/22 05:23:10;;;;;;;6.60;1.85;;;;;;;;;;4772545;30;20147;-70
2022/09/22 05:25:38;;;;;;;4.80;1.80;;;;;;;;;;4771999;30;20110;-70
2022/09/22 05:28:04;;;;;;;3.97;1.90;;;;;;;;;;4772381;30;20036;-70
2022/09/22 05:30:30;;;;;;;2.97;1.50;;;;;;;;;;4772556;30;20047;-70
2022/09/22 05:32:56;;;;;;;6.07;1.83;;;;;;;;;;4772703;30;20043;-70
2022/09/22 05:35:23;;;;;;;5.80;2.45;;;;;;;;;;4772985;30;20047;-69
2022/09/22 05:37:50;;;;;;;2.55;1.80;;;;;;;;;;4771254;30;20052;-69
2022/09/22 05:40:17;;;;;;;4.90;2.08;;;;;;;;;;4772964;30;20082;-69
2022/09/22 05:42:44;;;;;;;5.50;2.10;;;;;;;;;;4773098;30;20381;-69
2022/09/22 05:45:10;;;;;;;4.78;1.98;;;;;;;;;;4772374;30;20055;-70
2022/09/22 05:47:36;;;;;;;3.10;1.92;;;;;;;;;;4772216;30;20130;-70
2022/09/22 05:50:02;;;;;;;2.00;1.70;;;;;;;;;;4771645;30;20513;-70
2022/09/22 05:52:28;;;;;;;2.67;1.80;;;;;;;;;;4767916;30;20508;-70
2022/09/22 05:54:54;;;;;;;4.25;1.90;;;;;;;;;;4772934;30;20079;-70
2022/09/22 05:57:24;;;;;;;2.88;1.88;;;;;;;;;;4772423;30;20036;-70
2022/09/22 05:59:51;;;;;;;3.38;1.80;;;;;;;;;;4771457;30;20051;-70
2022/09/22 06:02:17;;;;;;;2.65;2.10;;;;;;;;;;4772285;30;20071;-69
2022/09/22 06:04:43;;;;;;;3.13;1.48;;;;;;;;;;4772224;30;20075;-70
2022/09/22 06:07:09;;;;;;;1.83;1.63;;;;;;;;;;4772629;30;20122;-70
2022/09/22 06:09:35;;;;;;;3.35;1.88;;;;;;;;;;4772076;30;20074;-70
2022/09/22 06:12:02;;;;;;;23.38;6.40;;;;;;;;;;4761114;30;20051;-72
2022/09/22 06:14:28;;;;;;;6.53;2.50;;;;;;;;;;4770005;30;20088;-70
2022/09/22 06:16:54;;;;;;;4.72;1.88;;;;;;;;;;4773102;30;20048;-70
2022/09/22 06:19:25;;;;;;;5.93;2.00;;;;;;;;;;4771165;30;20093;-72
2022/09/22 06:21:51;;;;;;;7.03;2.90;;;;;;;;;;4770964;30;20051;-71
2022/09/22 06:24:17;;;;;;;3.53;2.00;;;;;;;;;;4771923;30;20051;-71
2022/09/22 06:26:44;;;;;;;5.90;1.63;;;;;;;;;;4772220;30;20044;-71
2022/09/22 06:29:11;;;;;;;2.33;1.70;;;;;;;;;;4772105;30;20586;-70
2022/09/22 06:31:37;;;;;;;3.38;1.83;;;;;;;;;;4772144;30;20505;-72
2022/09/22 06:34:03;;;;;;;2.95;1.77;;;;;;;;;;4772892;30;20071;-71
2022/09/22 06:36:30;;;;;;;6.53;1.63;;;;;;;;;;4772164;30;20052;-71
2022/09/22 06:38:57;;;;;;;3.83;1.80;;;;;;;;;;4772221;30;20468;-71
2022/09/22 06:41:31;;;;;;;5.45;2.30;;;;;;;;;;4771651;30;20400;-71
2022/09/22 06:43:57;;;;;;;3.75;2.17;;;;;;;;;;4772153;30;20063;-71
2022/09/22 06:46:25;;;;;;;4.25;1.80;;;;;;;;;;4771861;30;20064;-71
2022/09/22 06:48:56;;;;;;;6.20;1.75;;;;;;;;;;4772126;30;20043;-71
2022/09/22 06:51:25;;;;;;;;;;;;;;;;;;4772148;30;20461;-72
2022/09/22 06:53:53;;;;;;;4.00;1.83;;;;;;;;;;4770602;30;19941;-71
2022/09/22 06:56:20;;;;;;;4.18;1.60;;;;;;;;;;4766352;30;20130;-71
2022/09/22 06:58:48;;;;;;;5.45;1.50;;;;;;;;;;4771334;30;20077;-71
2022/09/22 07:01:14;;;;;;;6.50;2.22;;;;;;;;;;4771152;30;20047;-71
2022/09/22 07:03:41;;;;;;;4.55;1.67;;;;;;;;;;4770678;30;20078;-71
2022/09/22 07:06:08;;;;;;;3.75;1.80;;;;;;;;;;4771444;30;20050;-71
2022/09/22 07:08:38;;;;;;;6.03;2.33;;;;;;;;;;4769759;30;20404;-72
2022/09/22 07:11:08;;;;;;;3.42;1.67;;;;;;;;;;4752318;30;20129;-73
2022/09/22 07:13:39;;;;;;;5.15;1.58;;;;;;;;;;4758044;30;20055;-72
2022/09/22 07:16:08;;;;;;;2.97;1.92;;;;;;;;;;4785505;30;20039;-72
2022/09/22 07:18:35;;;;;;;3.75;2.00;;;;;;;;;;4788306;30;20039;-73
2022/09/22 07:21:02;;;;;;;4.22;3.00;;;;;;;;;;4766972;30;20055;-72
2022/09/22 07:23:28;;;;;;;5.43;2.00;;;;;;;;;;4770477;30;20052;-71
2022/09/22 07:25:59;;;;;;;4.90;1.80;;;;;;;;;;4770281;30;20079;-71
2022/09/22 07:28:27;;;;;;;;;;;;;;;;;;4771163;30;20085;-72
2022/09/22 07:30:57;;;;;;;91.38;48.05;;;;;;;;;;4770417;30;19953;-72
2022/09/22 07:33:23;;;;;;;56.53;28.45;;;;;;;;;;4771813;30;20055;-72
2022/09/22 07:36:03;;;;;;;17.17;8.50;;;;;;;;;;4773336;30;20051;-71
2022/09/22 07:38:32;;;;;;;11.45;4.60;;;;;;;;;;4770055;30;20042;-71
2022/09/22 07:41:00;;;;;;;8.32;4.13;;;;;;;;;;4770889;30;20524;-71
2022/09/22 07:43:27;;;;;;;6.93;2.70;;;;;;;;;;4770772;30;20063;-71
2022/09/22 07:45:56;;;;;;;15.25;7.60;;;;;;;;;;4769504;30;20098;-71
2022/09/22 07:48:35;;;;;;;50.05;25.75;;;;;;;;;;4771145;30;20047;-71
2022/09/22 07:51:01;;;;;;;48.13;25.92;;;;;;;;;;4771011;30;20054;-71
2022/09/22 07:53:28;;;;;;;41.88;23.77;;;;;;;;;;4770789;30;20051;-71
2022/09/22 07:55:55;;;;;;;75.90;43.13;;;;;;;;;;4771147;30;20109;-71
2022/09/22 07:58:21;;;;;;;51.45;29.77;;;;;;;;;;4770979;30;20043;-71
2022/09/22 08:00:47;;;;;;;51.75;27.25;;;;;;;;;;4771366;30;20039;-71
2022/09/22 08:03:14;;;;;;;49.55;29.40;;;;;;;;;;4770715;30;20497;-71
2022/09/22 08:05:41;;;;;;;71.13;36.22;;;;;;;;;;4770876;30;20040;-71
2022/09/22 08:08:07;;;;;;;48.80;23.30;;;;;;;;;;4770778;30;20067;-71
2022/09/22 08:10:34;;;;;;;34.97;17.00;;;;;;;;;;4771202;30;20040;-71
2022/09/22 08:13:03;;;;;;;33.63;16.17;;;;;;;;;;4771202;30;20047;-71
2022/09/22 08:15:29;;;;;;;18.63;6.50;;;;;;;;;;4773890;30;20132;-71
2022/09/22 08:18:01;;;;;;;14.82;7.28;;;;;;;;;;4774329;30;20512;-71
2022/09/22 08:20:27;;;;;;;11.68;3.97;;;;;;;;;;4774324;30;20047;-71
2022/09/22 08:22:56;;;;;;;17.67;9.27;;;;;;;;;;4773793;30;20051;-71
2022/09/22 08:25:24;;;;;;;17.83;7.32;;;;;;;;;;4774511;30;20048;-71
2022/09/22 08:27:50;;;;;;;13.77;5.38;;;;;;;;;;4774433;30;20392;-71
2022/09/22 08:30:18;;;;;;;10.77;4.22;;;;;;;;;;4774414;30;20081;-71
2022/09/22 08:32:45;;;;;;;7.93;3.45;;;;;;;;;;4774704;30;20097;-71
2022/09/22 08:35:11;;;;;;;12.43;3.55;;;;;;;;;;4774034;30;20400;-71
2022/09/22 08:37:40;;;;;;;12.10;3.67;;;;;;;;;;4773917;30;20052;-71
2022/09/22 08:40:08;;;;;;;14.55;3.53;;;;;;;;;;4774763;30;20051;-71
2022/09/22 08:42:34;;;;;;;15.07;4.38;;;;;;;;;;4774004;30;20051;-71
2022/09/22 08:45:05;;;;;;;10.48;2.40;;;;;;;;;;4773794;30;20489;-71
2022/09/22 08:53:13;;;;;;;11.60;1.95;;;;;;;;;;4774256;30;20131;-71
2022/09/22 08:55:41;;;;;;;15.75;2.70;;;;;;;;;;4774494;30;20043;-71
2022/09/22 08:58:37;;;;;;;19.30;4.20;;;;;;;;;;4773924;30;20148;-71
2022/09/22 09:01:11;;;;;;;10.90;2.28;;;;;;;;;;4773649;30;20048;-71
2022/09/22 09:03:40;;;;;;;6.85;1.73;;;;;;;;;;4774148;30;20117;-71
2022/09/22 09:06:07;;;;;;;9.43;3.47;;;;;;;;;;4774149;30;20067;-71
2022/09/22 09:08:52;;;;;;;10.02;3.45;;;;;;;;;;4773880;30;20039;-71
2022/09/22 09:11:19;;;;;;;8.80;2.75;;;;;;;;;;4774016;30;20071;-71
2022/09/22 09:13:57;;;;;;;8.80;2.63;;;;;;;;;;4773932;30;20047;-71
2022/09/22 09:16:34;;;;;;;5.47;2.38;;;;;;;;;;4774049;30;20062;-71
2022/09/22 09:19:03;;;;;;;9.25;2.13;;;;;;;;;;4774249;30;20075;-71
2022/09/22 09:21:32;;;;;;;9.48;2.13;;;;;;;;;;4773522;30;20051;-71
2022/09/22 09:24:00;;;;;;;7.05;2.00;;;;;;;;;;4774193;30;20060;-71
2022/09/22 09:26:27;;;;;;;3.35;1.50;;;;;;;;;;4773480;30;20051;-71
2022/09/22 09:29:05;;;;;;;5.38;1.75;;;;;;;;;;4773756;30;20079;-71
2022/09/22 09:31:31;;;;;;;4.70;1.95;;;;;;;;;;4773783;30;20098;-71
2022/09/22 09:34:01;;;;;;;5.35;1.70;;;;;;;;;;4773381;30;20408;-71
2022/09/22 09:36:32;;;;;;;5.95;2.20;;;;;;;;;;4773370;30;20135;-71
2022/09/22 09:38:59;;;;;;;8.02;1.75;;;;;;;;;;4773914;30;20048;-71
2022/09/22 09:41:33;;;;;;;5.50;1.63;;;;;;;;;;4773228;30;20072;-71
2022/09/22 09:44:00;;;;;;;4.30;1.90;;;;;;;;;;4773153;30;20063;-71
2022/09/22 09:46:38;;;;;;;4.30;1.63;;;;;;;;;;4773288;30;20095;-71
2022/09/22 09:49:07;;;;;;;4.25;1.75;;;;;;;;;;4773222;30;20058;-71
2022/09/22 09:51:34;;;;;;;4.53;1.40;;;;;;;;;;4772975;30;20052;-71
2022/09/22 09:54:04;;;;;;;6.47;1.83;;;;;;;;;;4772744;30;20123;-71
2022/09/22 09:56:30;;;;;;;8.02;2.60;;;;;;;;;;4772953;30;20046;-71
2022/09/22 10:01:46;;;;;;;4.88;1.55;;;;;;;;;;4772371;30;20100;-71
2022/09/22 10:04:27;;;;;;;7.18;2.00;;;;;;;;;;4773019;30;20074;-71
2022/09/22 10:06:53;;;;;;;5.63;1.73;;;;;;;;;;4772722;30;20040;-71
2022/09/22 10:09:23;;;;;;;5.03;2.28;;;;;;;;;;4772783;30;20059;-71
2022/09/22 10:12:00;;;;;;;2.60;1.50;;;;;;;;;;4786946;30;20040;-71
2022/09/22 10:14:29;;;;;;;3.83;2.17;;;;;;;;;;4772400;30;20613;-71
2022/09/22 10:16:55;;;;;;;5.82;1.80;;;;;;;;;;4772628;30;20040;-71
2022/09/22 10:19:27;;;;;;;4.95;1.55;;;;;;;;;;4772756;30;20044;-71
2022/09/22 10:22:13;;;;;;;9.05;1.83;;;;;;;;;;4772859;30;20055;-71
2022/09/22 10:24:39;;;;;;;4.22;1.58;;;;;;;;;;4772689;30;20048;-71
2022/09/22 10:27:05;;;;;;;5.65;1.83;;;;;;;;;;4772763;30;20047;-71
2022/09/22 10:29:31;;;;;;;5.10;2.05;;;;;;;;;;4772413;30;20044;-71
2022/09/22 10:32:02;;;;;;;5.45;2.08;;;;;;;;;;4772518;30;20059;-71
2022/09/22 10:34:30;;;;;;;4.28;1.60;;;;;;;;;;4772089;30;20047;-71
2022/09/22 10:36:56;;;;;;;6.20;1.80;;;;;;;;;;4771966;30;20058;-71
2022/09/22 10:39:27;;;;;;;3.90;1.80;;;;;;;;;;4772000;30;20550;-71
2022/09/22 10:41:53;;;;;;;3.30;1.60;;;;;;;;;;4771791;30;20051;-71
2022/09/22 10:44:20;;;;;;;3.92;1.67;;;;;;;;;;4771866;30;20130;-71
2022/09/22 10:46:48;;;;;;;5.00;1.73;;;;;;;;;;4771726;30;20090;-71
2022/09/22 10:49:14;;;;;;;5.47;2.05;;;;;;;;;;4772078;30;20062;-71
2022/09/22 10:51:56;;;;;;;2.78;1.42;;;;;;;;;;4772197;30;20066;-71
2022/09/22 10:54:22;;;;;;;7.35;1.70;;;;;;;;;;4771973;30;20489;-71
2022/09/22 10:56:54;;;;;;;3.08;1.60;;;;;;;;;;4772284;30;20048;-71
2022/09/22 10:59:26;;;;;;;4.10;1.60;;;;;;;;;;4772176;30;20044;-71
2022/09/22 11:02:11;;;;;;;3.88;1.75;;;;;;;;;;4772065;30;20050;-71
2022/09/22 11:04:40;;;;;;;6.75;1.80;;;;;;;;;;4772101;30;20044;-71
2022/09/22 11:12:53;;;;;;;5.53;1.77;;;;;;;;;;4771609;30;20131;-71
2022/09/22 11:15:23;;;;;;;3.58;1.98;;;;;;;;;;4772034;30;20104;-71
2022/09/22 11:17:52;;;;;;;4.82;1.98;;;;;;;;;;4771960;30;20086;-71
2022/09/22 11:20:33;;;;;;;6.43;1.70;;;;;;;;;;4771987;30;20055;-71
2022/09/22 13:33:32;;;;;;;5.15;1.80;;;;;;;;;;5144620;27;20393;-68
2022/09/22 13:36:17;;;;;;;5.25;1.50;;;;;;;;;;5108986;28;20052;-68
2022/09/22 13:38:49;;;;;;;4.32;1.70;;;;;;;;;;5111130;28;20048;-68
2022/09/22 13:41:24;;;;;;;5.15;2.08;;;;;;;;;;5087310;28;20063;-68
2022/09/22 13:43:53;;;;;;;4.35;1.92;;;;;;;;;;5090956;28;20040;-69
2022/09/22 13:46:22;;;;;;;195.90;105.18;;;;;;;;;;5089539;28;20098;-68
2022/09/22 13:48:50;;;;;;;81.35;44.50;;;;;;;;;;5110322;28;20024;-68
2022/09/22 13:51:17;;;;;;;25.90;13.50;;;;;;;;;;5117278;28;20044;-68
2022/09/22 13:53:53;;;;;;;32.72;19.20;;;;;;;;;;5123107;28;20046;-68
2022/09/22 13:56:21;;;;;;;46.45;23.95;;;;;;;;;;5114931;28;20051;-68
2022/09/22 13:58:48;;;;;;;39.80;18.05;;;;;;;;;;5126343;28;20031;-68
2022/09/22 14:01:19;;;;;;;163.15;80.50;;;;;;;;;;5115874;28;20126;-69
2022/09/22 14:03:46;;;;;;;134.77;64.78;;;;;;;;;;5113209;28;20036;-69
2022/09/22 14:06:13;;;;;;;50.58;25.27;;;;;;;;;;5113779;28;20048;-68
2022/09/22 14:08:40;;;;;;;63.08;32.65;;;;;;;;;;5113140;28;20115;-69
2022/09/22 14:11:11;;;;;;;22.73;9.52;;;;;;;;;;5118583;28;20047;-68
2022/09/22 14:13:37;;;;;;;8.65;4.28;;;;;;;;;;5111715;28;20040;-68
2022/09/22 14:16:22;;;;;;;20.65;10.48;;;;;;;;;;5111853;28;20118;-69
2022/09/22 14:19:12;;;;;;;12.45;4.90;;;;;;;;;;5117264;28;20058;-69
2022/09/22 14:21:47;;;;;;;8.07;2.55;;;;;;;;;;5082696;28;20120;-68
2022/09/22 14:24:13;;;;;;;5.55;1.73;;;;;;;;;;5114155;28;20052;-68
2022/09/22 14:26:44;;;;;;;5.43;2.70;;;;;;;;;;5118298;28;20055;-69
2022/09/22 14:29:23;;;;;;;6.85;2.38;;;;;;;;;;5116259;28;20043;-68
2022/09/22 14:31:52;;;;;;;8.23;1.70;;;;;;;;;;5121106;28;20078;-68
2022/09/22 14:34:23;;;;;;;4.43;1.75;;;;;;;;;;5093862;28;20126;-68
2022/09/22 14:36:50;;;;;;;5.20;1.80;;;;;;;;;;5097308;28;20101;-68
2022/09/22 14:39:22;;;;;;;4.35;1.70;;;;;;;;;;5105266;28;20048;-68
2022/09/22 14:41:57;;;;;;;3.13;2.03;;;;;;;;;;5105922;28;20047;-69
2022/09/22 14:44:36;;;;;;;4.78;1.85;;;;;;;;;;5114450;28;20039;-68
2022/09/22 14:47:17;;;;;;;7.40;2.00;;;;;;;;;;5114392;28;20416;-69
2022/09/22 14:49:43;;;;;;;3.92;1.60;;;;;;;;;;5105647;28;20044;-69
2022/09/22 14:52:14;;;;;;;3.40;1.65;;;;;;;;;;5111703;28;20058;-68
2022/09/22 14:54:43;;;;;;;7.15;2.30;;;;;;;;;;5095475;28;20039;-69
2022/09/22 14:57:09;;;;;;;4.30;2.00;;;;;;;;;;5102055;28;20035;-69
2022/09/22 15:02:32;;;;;;;5.47;2.17;;;;;;;;;;5107330;28;20123;-69
2022/09/22 15:05:02;;;;;;;5.50;2.10;;;;;;;;;;5112739;28;20044;-68
2022/09/22 15:07:32;;;;;;;5.63;1.88;;;;;;;;;;5101850;28;20108;-68
2022/09/22 15:10:03;;;;;;;4.43;1.60;;;;;;;;;;5104334;28;20036;-69
2022/09/22 15:12:37;;;;;;;6.93;1.80;;;;;;;;;;5090079;28;20082;-68
2022/09/22 15:15:04;;;;;;;3.50;1.90;;;;;;;;;;5096282;28;20114;-69
2022/09/22 15:20:45;;;;;;;7.30;2.20;;;;;;;;;;5081125;28;20047;-69
2022/09/22 15:23:15;;;;;;;6.85;1.90;;;;;;;;;;5078361;28;20054;-69
2022/09/22 15:25:42;;;;;;;4.05;1.63;;;;;;;;;;5097573;28;20436;-68
2022/09/22 15:28:10;;;;;;;3.83;1.77;;;;;;;;;;5101526;28;20390;-68
2022/09/22 15:30:37;;;;;;;5.07;1.65;;;;;;;;;;5103863;28;20035;-68
2022/09/22 15:33:03;;;;;;;5.80;1.88;;;;;;;;;;5112260;28;20055;-68
2022/09/22 15:35:37;;;;;;;6.43;2.45;;;;;;;;;;5097476;28;20043;-68
2022/09/22 15:38:05;;;;;;;4.70;1.90;;;;;;;;;;5102885;28;20071;-68
2022/09/22 15:40:31;;;;;;;4.35;1.55;;;;;;;;;;5097677;28;20478;-69
2022/09/22 15:42:58;;;;;;;2.70;1.60;;;;;;;;;;5110694;28;20111;-69
2022/09/22 15:45:24;;;;;;;4.07;1.90;;;;;;;;;;5094854;28;20095;-68
2022/09/22 15:47:55;;;;;;;5.18;1.88;;;;;;;;;;5098393;28;20039;-68
2022/09/22 15:50:21;;;;;;;;;;;;;;;;;;5082819;28;20127;-69
2022/09/22 15:52:48;;;;;;;6.95;2.10;;;;;;;;;;5098017;28;19916;-69
2022/09/22 15:55:15;;;;;;;6.82;1.80;;;;;;;;;;5100372;28;20084;-69
2022/09/22 15:57:41;;;;;;;3.95;1.55;;;;;;;;;;5100268;28;20039;-69
2022/09/22 16:00:18;;;;;;;6.85;1.90;;;;;;;;;;5094145;28;20040;-69
2022/09/22 16:02:44;;;;;;;3.97;2.00;;;;;;;;;;5098723;28;20047;-69
2022/09/22 16:05:12;;;;;;;5.90;1.75;;;;;;;;;;5095882;28;20127;-69
2022/09/22 16:07:42;;;;;;;8.98;1.88;;;;;;;;;;5108718;28;20039;-69
2022/09/22 16:10:12;;;;;;;3.78;1.70;;;;;;;;;;5090732;28;20044;-68
2022/09/22 16:12:40;;;;;;;9.07;2.00;;;;;;;;;;5094733;28;20043;-70
2022/09/22 16:15:06;;;;;;;4.95;1.83;;;;;;;;;;5098993;28;20035;-69
2022/09/22 16:17:34;;;;;;;6.75;2.08;;;;;;;;;;5101650;28;20143;-69
2022/09/22 16:20:00;;;;;;;4.65;2.05;;;;;;;;;;5106321;28;20509;-71
2022/09/22 16:22:27;;;;;;;6.70;3.03;;;;;;;;;;5095522;28;20056;-68
2022/09/22 16:24:53;;;;;;;10.55;5.00;;;;;;;;;;5091941;28;20497;-68
2022/09/22 16:27:19;;;;;;;11.70;4.50;;;;;;;;;;5095525;28;20044;-73
2022/09/22 16:29:45;;;;;;;10.57;3.83;;;;;;;;;;5113202;28;20394;-69
2022/09/22 16:32:11;;;;;;;9.73;3.40;;;;;;;;;;5114471;28;20066;-68
2022/09/22 16:34:37;;;;;;;8.38;3.47;;;;;;;;;;5114431;28;20502;-73
2022/09/22 16:37:03;;;;;;;5.32;2.88;;;;;;;;;;5114140;28;20117;-68
2022/09/22 16:39:29;;;;;;;10.43;3.35;;;;;;;;;;5114485;28;20040;-68
2022/09/22 16:41:56;;;;;;;6.32;2.60;;;;;;;;;;5112314;28;20036;-68
2022/09/22 16:44:22;;;;;;;9.00;3.22;;;;;;;;;;5114377;28;20036;-68
2022/09/22 16:46:48;;;;;;;10.88;6.28;;;;;;;;;;5112558;28;20032;-69
2022/09/22 16:49:16;;;;;;;13.35;4.15;;;;;;;;;;5094715;28;20040;-69
2022/09/22 16:51:43;;;;;;;7.40;3.75;;;;;;;;;;5094011;28;20044;-70
2022/09/22 16:54:13;;;;;;;7.93;2.70;;;;;;;;;;5094865;28;20040;-69
2022/09/22 16:56:43;;;;;;;5.43;2.38;;;;;;;;;;5099992;28;20129;-68
2022/09/22 16:59:12;;;;;;;7.40;2.13;;;;;;;;;;5114527;28;20043;-68
2022/09/22 17:01:38;;;;;;;4.10;1.90;;;;;;;;;;5114570;28;20131;-69
2022/09/22 17:04:05;;;;;;;8.32;1.80;;;;;;;;;;5097147;28;20042;-68
2022/09/22 17:06:31;;;;;;;5.90;2.22;;;;;;;;;;5094184;28;20516;-68
2022/09/22 17:08:58;;;;;;;6.43;2.28;;;;;;;;;;5104021;27;20378;-68
2022/09/22 17:11:28;;;;;;;7.20;1.83;;;;;;;;;;5094700;28;20101;-68
2022/09/22 17:14:01;;;;;;;4.40;2.47;;;;;;;;;;5107615;28;20088;-68
2022/09/22 17:16:37;;;;;;;3.78;2.15;;;;;;;;;;5104059;28;20032;-68
2022/09/22 17:19:09;;;;;;;7.55;2.53;;;;;;;;;;5093042;28;20040;-68
2022/09/22 17:21:35;;;;;;;5.07;2.00;;;;;;;;;;5104029;28;20044;-68
2022/09/22 17:24:02;;;;;;;11.43;2.33;;;;;;;;;;5113754;28;20043;-68